Goshen, California
Current Conditions -  °F | °C
As of 9:15 AM on Sunday 23 Nov 2014 (Local Time) from KVIS Reporting Station
Overcast Overcast  
Wind Chill: 52°   Ceiling: 1600
Heat Index: 52°   Visibility: 10mi
Dew Point: 45°   Wind: 3mph
Humidity: 76%   Direction: 320°NW
Pressure: 30.32"   Gusts: NA
Location:  36.35°N, 119.42°W
Report Text: KVIS 231715Z 32003KT 10SM BKN016 OVC029 11/07 A3032 RMK AO1
Loading
Personal Weather Stations






























Interactive Weather Map New forecast layout! Learn more

10-Day Weather Forecast

Advertisements
Track Severe Weather on mobile